sensor_id;sensor_type;location;lat;lon;timestamp;pressure;altitude;pressure_sealevel;temperature;humidity
35704;BME280;21820;51.112;13.762;2022-12-18T00:01:57;100886.22;;;21.74;53.55
35704;BME280;21820;51.112;13.762;2022-12-18T00:04:25;100891.16;;;21.78;53.13
35704;BME280;21820;51.112;13.762;2022-12-18T00:06:51;100872.00;;;21.65;53.45
35704;BME280;21820;51.112;13.762;2022-12-18T00:09:17;100897.34;;;21.77;53.72
35704;BME280;21820;51.112;13.762;2022-12-18T00:11:43;100891.66;;;21.83;52.99
35704;BME280;21820;51.112;13.762;2022-12-18T00:14:09;100869.66;;;21.73;53.40
35704;BME280;21820;51.112;13.762;2022-12-18T00:16:36;100893.84;;;21.89;53.08
35704;BME280;21820;51.112;13.762;2022-12-18T00:19:03;100909.44;;;21.91;52.37
35704;BME280;21820;51.112;13.762;2022-12-18T00:21:30;100908.59;;;21.90;53.30
35704;BME280;21820;51.112;13.762;2022-12-18T00:23:57;100905.69;;;21.82;53.18
35704;BME280;21820;51.112;13.762;2022-12-18T00:26:31;100914.50;;;21.81;52.87
35704;BME280;21820;51.112;13.762;2022-12-18T00:29:02;100921.63;;;21.79;53.13
35704;BME280;21820;51.112;13.762;2022-12-18T00:31:28;100909.16;;;21.70;53.21
35704;BME280;21820;51.112;13.762;2022-12-18T00:33:55;100913.22;;;21.74;53.76
35704;BME280;21820;51.112;13.762;2022-12-18T00:36:26;100909.88;;;21.72;53.47
35704;BME280;21820;51.112;13.762;2022-12-18T00:38:54;100911.75;;;21.70;53.48
35704;BME280;21820;51.112;13.762;2022-12-18T00:41:20;100923.09;;;21.71;53.43
35704;BME280;21820;51.112;13.762;2022-12-18T00:44:05;100932.81;;;21.69;53.99
35704;BME280;21820;51.112;13.762;2022-12-18T00:46:31;100943.91;;;21.72;53.33
35704;BME280;21820;51.112;13.762;2022-12-18T00:48:57;100944.88;;;21.71;53.65
35704;BME280;21820;51.112;13.762;2022-12-18T00:51:23;100929.78;;;21.62;53.70
35704;BME280;21820;51.112;13.762;2022-12-18T00:53:48;100941.06;;;21.75;53.21
35704;BME280;21820;51.112;13.762;2022-12-18T00:56:14;100943.63;;;21.77;53.14
35704;BME280;21820;51.112;13.762;2022-12-18T00:58:39;100948.75;;;21.78;53.70
35704;BME280;21820;51.112;13.762;2022-12-18T01:01:05;100955.44;;;21.82;53.07
35704;BME280;21820;51.112;13.762;2022-12-18T01:03:30;100943.72;;;21.88;53.36
35704;BME280;21820;51.112;13.762;2022-12-18T01:05:56;100926.97;;;21.78;53.35
35704;BME280;21820;51.112;13.762;2022-12-18T01:08:21;100939.19;;;21.90;53.05
35704;BME280;21820;51.112;13.762;2022-12-18T01:10:46;100937.19;;;21.93;52.51
35704;BME280;21820;51.112;13.762;2022-12-18T01:13:12;100929.31;;;21.93;52.39
35704;BME280;21820;51.112;13.762;2022-12-18T01:15:37;100939.69;;;21.95;52.73
35704;BME280;21820;51.112;13.762;2022-12-18T01:18:02;100941.28;;;21.98;52.64
35704;BME280;21820;51.112;13.762;2022-12-18T01:20:29;100937.50;;;21.89;52.55
35704;BME280;21820;51.112;13.762;2022-12-18T01:22:54;100950.50;;;21.90;52.60
35704;BME280;21820;51.112;13.762;2022-12-18T01:25:20;100950.72;;;21.87;53.09
35704;BME280;21820;51.112;13.762;2022-12-18T01:27:45;100951.75;;;21.85;53.44
35704;BME280;21820;51.112;13.762;2022-12-18T01:30:11;100959.94;;;21.80;52.78
35704;BME280;21820;51.112;13.762;2022-12-18T01:32:36;100961.81;;;21.78;53.63
35704;BME280;21820;51.112;13.762;2022-12-18T01:35:02;100947.66;;;21.68;53.53
35704;BME280;21820;51.112;13.762;2022-12-18T01:37:27;100957.72;;;21.74;53.27
35704;BME280;21820;51.112;13.762;2022-12-18T01:39:52;100964.63;;;21.75;53.09
35704;BME280;21820;51.112;13.762;2022-12-18T01:42:20;100965.59;;;21.74;53.94
35704;BME280;21820;51.112;13.762;2022-12-18T01:45:20;100961.13;;;21.76;53.09
35704;BME280;21820;51.112;13.762;2022-12-18T01:53:02;100972.91;;;21.82;53.51
35704;BME280;21820;51.112;13.762;2022-12-18T01:55:31;100955.78;;;21.78;53.00
35704;BME280;21820;51.112;13.762;2022-12-18T01:57:58;100969.38;;;21.83;52.63
35704;BME280;21820;51.112;13.762;2022-12-18T02:00:25;100938.78;;;21.71;53.43
35704;BME280;21820;51.112;13.762;2022-12-18T02:02:51;100959.94;;;21.80;53.81
35704;BME280;21820;51.112;13.762;2022-12-18T02:11:10;100965.25;;;21.91;52.52
35704;BME280;21820;51.112;13.762;2022-12-18T02:16:29;100961.94;;;21.89;52.79
35704;BME280;21820;51.112;13.762;2022-12-18T02:19:03;100957.84;;;21.85;53.12
35704;BME280;21820;51.112;13.762;2022-12-18T02:21:36;100951.16;;;21.81;52.94
35704;BME280;21820;51.112;13.762;2022-12-18T02:26:53;100959.09;;;21.80;53.28
35704;BME280;21820;51.112;13.762;2022-12-18T02:29:53;100963.91;;;21.73;54.05
35704;BME280;21820;51.112;13.762;2022-12-18T02:32:27;100967.34;;;21.74;53.04
35704;BME280;21820;51.112;13.762;2022-12-18T02:34:55;100958.66;;;21.73;53.36
35704;BME280;21820;51.112;13.762;2022-12-18T02:37:22;100957.63;;;21.76;53.73
35704;BME280;21820;51.112;13.762;2022-12-18T02:39:49;100968.97;;;21.76;52.93
35704;BME280;21820;51.112;13.762;2022-12-18T02:42:17;100972.59;;;21.74;53.20
35704;BME280;21820;51.112;13.762;2022-12-18T02:44:49;100975.03;;;21.77;53.57
35704;BME280;21820;51.112;13.762;2022-12-18T02:47:17;100976.72;;;21.78;53.28
35704;BME280;21820;51.112;13.762;2022-12-18T02:49:57;100983.50;;;21.80;53.12
35704;BME280;21820;51.112;13.762;2022-12-18T03:00:39;100967.28;;;21.88;53.34
35704;BME280;21820;51.112;13.762;2022-12-18T03:03:24;100974.19;;;21.89;52.86
35704;BME280;21820;51.112;13.762;2022-12-18T03:05:58;100969.78;;;21.89;53.10
35704;BME280;21820;51.112;13.762;2022-12-18T03:08:27;100973.31;;;21.88;52.81
35704;BME280;21820;51.112;13.762;2022-12-18T03:11:04;100970.19;;;21.83;53.07
35704;BME280;21820;51.112;13.762;2022-12-18T03:13:51;100971.88;;;21.84;52.70
35704;BME280;21820;51.112;13.762;2022-12-18T03:16:23;100975.66;;;21.80;53.32
35704;BME280;21820;51.112;13.762;2022-12-18T03:19:09;100981.19;;;21.76;52.82
35704;BME280;21820;51.112;13.762;2022-12-18T03:21:40;100975.88;;;21.65;53.45
35704;BME280;21820;51.112;13.762;2022-12-18T03:24:09;100982.22;;;21.73;53.52
35704;BME280;21820;51.112;13.762;2022-12-18T03:26:38;100982.22;;;21.73;53.09
35704;BME280;21820;51.112;13.762;2022-12-18T03:29:13;100975.31;;;21.72;53.37
35704;BME280;21820;51.112;13.762;2022-12-18T03:31:40;100979.59;;;21.73;53.57
35704;BME280;21820;51.112;13.762;2022-12-18T03:34:17;100982.13;;;21.75;53.51
35704;BME280;21820;51.112;13.762;2022-12-18T03:36:44;100988.41;;;21.72;52.93
35704;BME280;21820;51.112;13.762;2022-12-18T03:39:10;100990.91;;;21.74;53.15
35704;BME280;21820;51.112;13.762;2022-12-18T03:44:29;101000.97;;;21.80;52.94
35704;BME280;21820;51.112;13.762;2022-12-18T03:49:50;100993.66;;;21.85;53.10
35704;BME280;21820;51.112;13.762;2022-12-18T03:52:42;100994.28;;;21.88;52.77
35704;BME280;21820;51.112;13.762;2022-12-18T03:55:10;100993.34;;;21.89;52.61
35704;BME280;21820;51.112;13.762;2022-12-18T03:57:37;100996.66;;;21.91;52.89
35704;BME280;21820;51.112;13.762;2022-12-18T04:00:09;100990.00;;;21.87;52.80
35704;BME280;21820;51.112;13.762;2022-12-18T04:02:37;100998.81;;;21.86;52.91
35704;BME280;21820;51.112;13.762;2022-12-18T04:05:05;101000.91;;;21.81;52.74
35704;BME280;21820;51.112;13.762;2022-12-18T04:07:32;101003.09;;;21.87;53.33
35704;BME280;21820;51.112;13.762;2022-12-18T04:09:59;100995.34;;;21.86;52.60
35704;BME280;21820;51.112;13.762;2022-12-18T04:12:28;101002.78;;;21.79;53.45
35704;BME280;21820;51.112;13.762;2022-12-18T04:14:54;101005.63;;;21.76;53.47
35704;BME280;21820;51.112;13.762;2022-12-18T04:17:20;101012.19;;;21.69;53.03
35704;BME280;21820;51.112;13.762;2022-12-18T04:19:45;101013.56;;;21.75;53.22
35704;BME280;21820;51.112;13.762;2022-12-18T04:22:11;101012.06;;;21.71;53.21
35704;BME280;21820;51.112;13.762;2022-12-18T04:24:36;100992.09;;;21.57;53.29
35704;BME280;21820;51.112;13.762;2022-12-18T04:27:02;101011.00;;;21.73;53.40
35704;BME280;21820;51.112;13.762;2022-12-18T04:29:27;101016.09;;;21.76;53.18
35704;BME280;21820;51.112;13.762;2022-12-18T04:31:53;101006.63;;;21.74;52.67
35704;BME280;21820;51.112;13.762;2022-12-18T04:34:19;101012.72;;;21.74;53.13
35704;BME280;21820;51.112;13.762;2022-12-18T04:36:45;101015.13;;;21.77;52.97
35704;BME280;21820;51.112;13.762;2022-12-18T04:39:10;101023.63;;;21.81;53.02
35704;BME280;21820;51.112;13.762;2022-12-18T04:41:35;101028.53;;;21.85;52.92
35704;BME280;21820;51.112;13.762;2022-12-18T04:44:01;101020.47;;;21.88;53.07
35704;BME280;21820;51.112;13.762;2022-12-18T04:46:26;101014.69;;;21.83;52.77
35704;BME280;21820;51.112;13.762;2022-12-18T04:48:52;101032.19;;;21.95;52.41
35704;BME280;21820;51.112;13.762;2022-12-18T04:51:17;101026.09;;;21.95;52.44
35704;BME280;21820;51.112;13.762;2022-12-18T04:53:42;101033.13;;;21.94;52.43
35704;BME280;21820;51.112;13.762;2022-12-18T04:56:15;101031.03;;;22.00;52.08
35704;BME280;21820;51.112;13.762;2022-12-18T04:58:42;101024.22;;;21.97;52.48
35704;BME280;21820;51.112;13.762;2022-12-18T05:01:08;101017.72;;;22.03;52.41
35704;BME280;21820;51.112;13.762;2022-12-18T05:03:34;101017.00;;;22.01;52.31
35704;BME280;21820;51.112;13.762;2022-12-18T05:05:59;101014.59;;;21.98;52.03
35704;BME280;21820;51.112;13.762;2022-12-18T05:08:25;101020.06;;;21.94;53.00
35704;BME280;21820;51.112;13.762;2022-12-18T05:11:00;101020.47;;;21.88;52.99
35704;BME280;21820;51.112;13.762;2022-12-18T05:13:27;101024.03;;;21.87;52.48
35704;BME280;21820;51.112;13.762;2022-12-18T05:15:53;101024.34;;;21.83;53.23
35704;BME280;21820;51.112;13.762;2022-12-18T05:18:19;101024.47;;;21.81;53.02
35704;BME280;21820;51.112;13.762;2022-12-18T05:20:44;101021.22;;;21.78;52.95
35704;BME280;21820;51.112;13.762;2022-12-18T05:23:09;101020.38;;;21.77;53.43
35704;BME280;21820;51.112;13.762;2022-12-18T05:25:34;101024.09;;;21.73;53.19
35704;BME280;21820;51.112;13.762;2022-12-18T05:28:00;101032.91;;;21.72;53.38
35704;BME280;21820;51.112;13.762;2022-12-18T05:30:25;101028.75;;;21.70;53.12
35704;BME280;21820;51.112;13.762;2022-12-18T05:32:51;101025.50;;;21.66;53.02
35704;BME280;21820;51.112;13.762;2022-12-18T05:35:16;101027.59;;;21.61;53.92
35704;BME280;21820;51.112;13.762;2022-12-18T05:37:41;101022.75;;;21.55;53.92
35704;BME280;21820;51.112;13.762;2022-12-18T05:40:07;101027.06;;;21.56;54.08
35704;BME280;21820;51.112;13.762;2022-12-18T05:42:32;101020.97;;;21.56;53.45
35704;BME280;21820;51.112;13.762;2022-12-18T05:44:58;101002.84;;;21.40;54.22
35704;BME280;21820;51.112;13.762;2022-12-18T05:47:23;101034.38;;;21.51;54.37
35704;BME280;21820;51.112;13.762;2022-12-18T05:49:48;101024.25;;;21.47;54.52
35704;BME280;21820;51.112;13.762;2022-12-18T05:52:14;101036.47;;;21.46;54.46
35704;BME280;21820;51.112;13.762;2022-12-18T05:54:39;101025.28;;;21.44;54.60
35704;BME280;21820;51.112;13.762;2022-12-18T05:57:05;101033.22;;;21.43;54.39
35704;BME280;21820;51.112;13.762;2022-12-18T05:59:30;101040.00;;;21.45;55.20
35704;BME280;21820;51.112;13.762;2022-12-18T06:01:56;101031.63;;;21.40;54.80
35704;BME280;21820;51.112;13.762;2022-12-18T06:04:21;101035.31;;;21.38;54.86
35704;BME280;21820;51.112;13.762;2022-12-18T06:06:46;101033.84;;;21.34;54.81
35704;BME280;21820;51.112;13.762;2022-12-18T06:09:12;101025.03;;;21.22;54.77
35704;BME280;21820;51.112;13.762;2022-12-18T06:11:38;101036.75;;;21.29;54.83
35704;BME280;21820;51.112;13.762;2022-12-18T06:14:04;101040.53;;;21.25;54.38
35704;BME280;21820;51.112;13.762;2022-12-18T06:16:30;101030.88;;;21.13;56.13
35704;BME280;21820;51.112;13.762;2022-12-18T06:18:59;101045.94;;;21.22;56.04
35704;BME280;21820;51.112;13.762;2022-12-18T06:21:25;101051.59;;;21.16;54.39
35704;BME280;21820;51.112;13.762;2022-12-18T06:23:51;101053.25;;;21.17;54.88
35704;BME280;21820;51.112;13.762;2022-12-18T06:26:16;101048.25;;;21.14;55.16
35704;BME280;21820;51.112;13.762;2022-12-18T06:28:41;101036.06;;;21.01;54.33
35704;BME280;21820;51.112;13.762;2022-12-18T06:31:07;101052.72;;;21.12;54.56
35704;BME280;21820;51.112;13.762;2022-12-18T06:33:34;101055.28;;;21.14;54.54
35704;BME280;21820;51.112;13.762;2022-12-18T06:36:01;101067.91;;;21.07;54.36
35704;BME280;21820;51.112;13.762;2022-12-18T06:38:27;101064.34;;;21.08;55.11
35704;BME280;21820;51.112;13.762;2022-12-18T06:40:53;101066.66;;;21.13;54.91
35704;BME280;21820;51.112;13.762;2022-12-18T06:43:18;101062.47;;;21.10;54.76
35704;BME280;21820;51.112;13.762;2022-12-18T06:45:43;101066.66;;;21.13;54.24
35704;BME280;21820;51.112;13.762;2022-12-18T06:48:09;101070.44;;;21.09;54.09
35704;BME280;21820;51.112;13.762;2022-12-18T06:50:34;101076.25;;;21.12;54.55
35704;BME280;21820;51.112;13.762;2022-12-18T06:53:00;101079.72;;;21.13;54.13
35704;BME280;21820;51.112;13.762;2022-12-18T06:55:25;101081.13;;;21.18;54.23
35704;BME280;21820;51.112;13.762;2022-12-18T06:57:50;101072.31;;;21.19;54.06
35704;BME280;21820;51.112;13.762;2022-12-18T07:00:16;101088.66;;;21.23;54.28
35704;BME280;21820;51.112;13.762;2022-12-18T07:02:41;101085.94;;;21.24;54.44
35704;BME280;21820;51.112;13.762;2022-12-18T07:05:07;101094.53;;;21.26;53.94
35704;BME280;21820;51.112;13.762;2022-12-18T07:07:34;101090.66;;;21.32;53.41
35704;BME280;21820;51.112;13.762;2022-12-18T07:09:59;101098.94;;;21.38;53.68
35704;BME280;21820;51.112;13.762;2022-12-18T07:12:26;101105.63;;;21.42;53.25
35704;BME280;21820;51.112;13.762;2022-12-18T07:14:55;101098.00;;;21.39;53.68
35704;BME280;21820;51.112;13.762;2022-12-18T07:17:20;101098.75;;;21.41;53.88
35704;BME280;21820;51.112;13.762;2022-12-18T07:19:46;101102.81;;;21.45;53.67
35704;BME280;21820;51.112;13.762;2022-12-18T07:22:11;101093.50;;;21.41;53.45
35704;BME280;21820;51.112;13.762;2022-12-18T07:24:37;101075.63;;;21.35;53.08
35704;BME280;21820;51.112;13.762;2022-12-18T07:27:02;101089.56;;;21.48;53.23
35704;BME280;21820;51.112;13.762;2022-12-18T07:29:28;101093.50;;;21.54;52.87
35704;BME280;21820;51.112;13.762;2022-12-18T07:31:53;101088.50;;;21.51;53.42
35704;BME280;21820;51.112;13.762;2022-12-18T07:34:20;101107.66;;;21.51;53.54
35704;BME280;21820;51.112;13.762;2022-12-18T07:36:45;101107.44;;;21.54;52.90
35704;BME280;21820;51.112;13.762;2022-12-18T07:39:11;101114.34;;;21.55;52.87
35704;BME280;21820;51.112;13.762;2022-12-18T07:41:36;101115.94;;;21.58;53.18
35704;BME280;21820;51.112;13.762;2022-12-18T07:44:02;101122.19;;;21.55;53.37
35704;BME280;21820;51.112;13.762;2022-12-18T07:46:27;101124.63;;;21.58;53.25
35704;BME280;21820;51.112;13.762;2022-12-18T07:48:52;101123.69;;;21.59;52.55
35704;BME280;21820;51.112;13.762;2022-12-18T07:51:18;101122.00;;;21.58;53.15
35704;BME280;21820;51.112;13.762;2022-12-18T07:53:44;101114.56;;;21.52;52.66
35704;BME280;21820;51.112;13.762;2022-12-18T07:56:11;101125.56;;;21.57;53.18
35704;BME280;21820;51.112;13.762;2022-12-18T07:58:37;101126.19;;;21.61;52.40
35704;BME280;21820;51.112;13.762;2022-12-18T08:01:07;101125.56;;;21.57;52.71
35704;BME280;21820;51.112;13.762;2022-12-18T08:03:34;101122.00;;;21.58;52.84
35704;BME280;21820;51.112;13.762;2022-12-18T08:06:04;101113.84;;;21.63;52.82
35704;BME280;21820;51.112;13.762;2022-12-18T08:08:30;101113.75;;;21.64;53.28
35704;BME280;21820;51.112;13.762;2022-12-18T08:10:56;101089.34;;;21.51;52.94
35704;BME280;21820;51.112;13.762;2022-12-18T08:13:22;101109.63;;;21.60;53.06
35704;BME280;21820;51.112;13.762;2022-12-18T08:16:02;101101.06;;;21.58;53.32
35704;BME280;21820;51.112;13.762;2022-12-18T08:18:28;101098.63;;;21.55;52.83
35704;BME280;21820;51.112;13.762;2022-12-18T08:20:54;101099.38;;;21.57;53.25
35704;BME280;21820;51.112;13.762;2022-12-18T08:23:20;101104.63;;;21.57;52.72
35704;BME280;21820;51.112;13.762;2022-12-18T08:25:45;101082.63;;;21.47;53.04
35704;BME280;21820;51.112;13.762;2022-12-18T08:28:10;101107.97;;;21.59;52.63
35704;BME280;21820;51.112;13.762;2022-12-18T08:30:36;101104.63;;;21.57;52.74
35704;BME280;21820;51.112;13.762;2022-12-18T08:33:01;101110.06;;;21.54;52.95
35704;BME280;21820;51.112;13.762;2022-12-18T08:35:27;101093.09;;;21.47;52.37
35704;BME280;21820;51.112;13.762;2022-12-18T08:37:53;101112.69;;;21.54;52.53
35704;BME280;21820;51.112;13.762;2022-12-18T08:40:18;101114.44;;;21.54;53.01
35704;BME280;21820;51.112;13.762;2022-12-18T08:42:44;101108.41;;;21.53;52.83
35704;BME280;21820;51.112;13.762;2022-12-18T08:45:28;101108.69;;;21.49;53.34
35704;BME280;21820;51.112;13.762;2022-12-18T08:47:53;101105.03;;;21.51;52.65
35704;BME280;21820;51.112;13.762;2022-12-18T08:50:19;101110.66;;;21.45;52.52
35704;BME280;21820;51.112;13.762;2022-12-18T08:52:45;101108.25;;;21.42;53.10
35704;BME280;21820;51.112;13.762;2022-12-18T08:55:10;101110.22;;;21.39;53.32
35704;BME280;21820;51.112;13.762;2022-12-18T08:57:35;101108.34;;;21.28;53.07
35704;BME280;21820;51.112;13.762;2022-12-18T09:00:01;101120.47;;;21.29;53.60
35704;BME280;21820;51.112;13.762;2022-12-18T09:02:26;101118.91;;;21.27;53.65
35704;BME280;21820;51.112;13.762;2022-12-18T09:04:51;101119.94;;;21.24;53.54
35704;BME280;21820;51.112;13.762;2022-12-18T09:07:17;101117.31;;;21.24;53.28
35704;BME280;21820;51.112;13.762;2022-12-18T09:09:42;101123.50;;;21.23;53.57
35704;BME280;21820;51.112;13.762;2022-12-18T09:12:07;101106.72;;;21.13;53.64
35704;BME280;21820;51.112;13.762;2022-12-18T09:14:33;101121.63;;;21.25;54.00
35704;BME280;21820;51.112;13.762;2022-12-18T09:16:59;101129.28;;;21.28;53.87
35704;BME280;21820;51.112;13.762;2022-12-18T09:19:24;101139.53;;;21.31;53.65
35704;BME280;21820;51.112;13.762;2022-12-18T09:21:49;101142.13;;;21.31;53.15
35704;BME280;21820;51.112;13.762;2022-12-18T09:24:15;101147.38;;;21.31;53.39
35704;BME280;21820;51.112;13.762;2022-12-18T09:26:41;101148.13;;;21.33;53.61
35704;BME280;21820;51.112;13.762;2022-12-18T09:29:06;101150.00;;;21.31;49.94
35704;BME280;21820;51.112;13.762;2022-12-18T09:31:33;101151.75;;;21.31;48.93
35704;BME280;21820;51.112;13.762;2022-12-18T09:33:58;101161.31;;;21.32;49.01
35704;BME280;21820;51.112;13.762;2022-12-18T09:36:24;101155.66;;;21.38;48.44
35704;BME280;21820;51.112;13.762;2022-12-18T09:38:49;101155.66;;;21.38;48.67
35704;BME280;21820;51.112;13.762;2022-12-18T09:42:09;101155.88;;;21.47;48.40
35704;BME280;21820;51.112;13.762;2022-12-18T09:44:36;101151.72;;;21.45;48.67
35704;BME280;21820;51.112;13.762;2022-12-18T09:49:53;101124.63;;;21.58;48.46
35704;BME280;21820;51.112;13.762;2022-12-18T09:52:28;101146.78;;;21.79;48.89
35704;BME280;21820;51.112;13.762;2022-12-18T09:57:56;101143.13;;;21.94;48.40
35704;BME280;21820;51.112;13.762;2022-12-18T10:00:26;101141.75;;;22.02;48.05
35704;BME280;21820;51.112;13.762;2022-12-18T10:02:59;101111.47;;;21.98;47.96
35704;BME280;21820;51.112;13.762;2022-12-18T10:10:53;101119.00;;;22.27;48.06
35704;BME280;21820;51.112;13.762;2022-12-18T10:13:34;101087.88;;;22.23;48.01
35704;BME280;21820;51.112;13.762;2022-12-18T10:22:16;101063.75;;;22.30;47.79
35704;BME280;21820;51.112;13.762;2022-12-18T10:27:45;101082.78;;;22.45;47.18
35704;BME280;21820;51.112;13.762;2022-12-18T10:30:20;101080.91;;;22.47;47.62
35704;BME280;21820;51.112;13.762;2022-12-18T10:32:46;101071.78;;;22.40;46.44
35704;BME280;21820;51.112;13.762;2022-12-18T10:35:30;101045.75;;;22.26;46.85
35704;BME280;21820;51.112;13.762;2022-12-18T10:38:01;101069.19;;;22.40;46.75
35704;BME280;21820;51.112;13.762;2022-12-18T10:40:27;101065.63;;;22.41;47.16
35704;BME280;21820;51.112;13.762;2022-12-18T10:43:13;101055.56;;;22.35;47.52
35704;BME280;21820;51.112;13.762;2022-12-18T10:45:40;101059.78;;;22.25;47.27
35704;BME280;21820;51.112;13.762;2022-12-18T10:48:18;101054.97;;;22.19;47.76
35704;BME280;21820;51.112;13.762;2022-12-18T10:50:48;101040.00;;;22.08;47.40
35704;BME280;21820;51.112;13.762;2022-12-18T10:53:20;101035.53;;;21.98;47.67
35704;BME280;21820;51.112;13.762;2022-12-18T10:55:47;101048.59;;;22.10;47.68
35704;BME280;21820;51.112;13.762;2022-12-18T10:58:22;101060.22;;;22.19;48.07
35704;BME280;21820;51.112;13.762;2022-12-18T11:01:06;101060.22;;;22.19;47.25
35704;BME280;21820;51.112;13.762;2022-12-18T11:06:07;101057.88;;;22.27;47.84
35704;BME280;21820;51.112;13.762;2022-12-18T11:08:33;101054.84;;;22.33;47.49
35704;BME280;21820;51.112;13.762;2022-12-18T11:10:58;101031.91;;;22.24;47.47
35704;BME280;21820;51.112;13.762;2022-12-18T11:13:27;101043.41;;;22.34;47.63
35704;BME280;21820;51.112;13.762;2022-12-18T11:15:53;101044.78;;;22.27;48.03
35704;BME280;21820;51.112;13.762;2022-12-18T11:18:28;101037.66;;;22.29;47.04
35704;BME280;21820;51.112;13.762;2022-12-18T11:21:09;101032.13;;;22.21;46.96
35704;BME280;21820;51.112;13.762;2022-12-18T11:23:36;101015.78;;;22.17;44.53
35704;BME280;21820;51.112;13.762;2022-12-18T11:26:04;101020.69;;;22.22;43.85
35704;BME280;21820;51.112;13.762;2022-12-18T11:28:51;101016.88;;;22.15;44.75
35704;BME280;21820;51.112;13.762;2022-12-18T11:33:50;101036.97;;;22.14;45.77
35704;BME280;21820;51.112;13.762;2022-12-18T11:36:18;101036.88;;;22.16;46.20
35704;BME280;21820;51.112;13.762;2022-12-18T11:38:46;101028.28;;;22.14;45.80
35704;BME280;21820;51.112;13.762;2022-12-18T11:43:55;101025.44;;;22.17;45.93
35704;BME280;21820;51.112;13.762;2022-12-18T11:46:48;101015.19;;;22.14;46.22
35704;BME280;21820;51.112;13.762;2022-12-18T11:49:21;101015.78;;;22.17;46.44
35704;BME280;21820;51.112;13.762;2022-12-18T11:51:55;101022.28;;;22.12;46.42
35704;BME280;21820;51.112;13.762;2022-12-18T11:54:23;101025.88;;;22.11;46.94
35704;BME280;21820;51.112;13.762;2022-12-18T11:56:55;101031.56;;;22.05;46.85
35704;BME280;21820;51.112;13.762;2022-12-18T12:13:44;101041.50;;;22.00;46.92
35704;BME280;21820;51.112;13.762;2022-12-18T12:19:26;101043.19;;;22.01;46.90
35704;BME280;21820;51.112;13.762;2022-12-18T12:25:31;101050.81;;;22.04;46.95
35704;BME280;21820;51.112;13.762;2022-12-18T12:41:34;101070.78;;;22.30;46.71
35704;BME280;21820;51.112;13.762;2022-12-18T12:44:24;101066.38;;;22.30;47.20
35704;BME280;21820;51.112;13.762;2022-12-18T12:46:55;101075.88;;;22.44;46.07
35704;BME280;21820;51.112;13.762;2022-12-18T12:49:25;101070.41;;;22.47;46.45
35704;BME280;21820;51.112;13.762;2022-12-18T12:52:12;101059.53;;;22.53;46.54
35704;BME280;21820;51.112;13.762;2022-12-18T12:54:39;101061.00;;;22.57;47.14
35704;BME280;21820;51.112;13.762;2022-12-18T12:57:10;101061.72;;;22.59;46.60
35704;BME280;21820;51.112;13.762;2022-12-18T13:00:14;101060.25;;;22.55;47.05
35704;BME280;21820;51.112;13.762;2022-12-18T13:05:42;101048.22;;;22.40;47.56
35704;BME280;21820;51.112;13.762;2022-12-18T13:08:11;101049.06;;;22.40;47.92
35704;BME280;21820;51.112;13.762;2022-12-18T13:10:40;101055.66;;;22.46;47.86
35704;BME280;21820;51.112;13.762;2022-12-18T13:20:38;101039.47;;;22.52;47.72
35704;BME280;21820;51.112;13.762;2022-12-18T13:25:49;101049.88;;;22.53;47.17
35704;BME280;21820;51.112;13.762;2022-12-18T13:28:16;101046.41;;;22.53;47.56
35704;BME280;21820;51.112;13.762;2022-12-18T13:30:43;101045.69;;;22.51;47.87
35704;BME280;21820;51.112;13.762;2022-12-18T13:35:41;101047.78;;;22.46;48.44
35704;BME280;21820;51.112;13.762;2022-12-18T13:41:26;101046.31;;;22.42;48.29
35704;BME280;21820;51.112;13.762;2022-12-18T13:43:54;101041.94;;;22.42;48.36
35704;BME280;21820;51.112;13.762;2022-12-18T13:46:28;101043.81;;;22.40;48.53
35704;BME280;21820;51.112;13.762;2022-12-18T13:49:25;101055.56;;;22.35;48.69
35704;BME280;21820;51.112;13.762;2022-12-18T13:51:54;101041.94;;;22.30;48.47
35704;BME280;21820;51.112;13.762;2022-12-18T13:54:36;101030.44;;;22.20;48.41
35704;BME280;21820;51.112;13.762;2022-12-18T13:57:03;101036.66;;;22.19;48.79
35704;BME280;21820;51.112;13.762;2022-12-18T13:59:34;101019.16;;;22.07;49.64
35704;BME280;21820;51.112;13.762;2022-12-18T14:02:11;101040.72;;;22.23;49.57
35704;BME280;21820;51.112;13.762;2022-12-18T14:04:38;101024.22;;;22.10;49.32
35704;BME280;21820;51.112;13.762;2022-12-18T14:07:24;101037.50;;;22.19;49.69
35704;BME280;21820;51.112;13.762;2022-12-18T14:09:53;101039.50;;;22.16;49.95
35704;BME280;21820;51.112;13.762;2022-12-18T14:12:26;101047.00;;;22.20;49.85
35704;BME280;21820;51.112;13.762;2022-12-18T14:17:54;101046.50;;;22.15;50.41
35704;BME280;21820;51.112;13.762;2022-12-18T14:20:21;101046.16;;;22.20;50.27
35704;BME280;21820;51.112;13.762;2022-12-18T14:22:48;101040.53;;;22.13;50.74
35704;BME280;21820;51.112;13.762;2022-12-18T14:25:26;101030.25;;;22.10;50.68
35704;BME280;21820;51.112;13.762;2022-12-18T14:30:37;101029.88;;;22.04;49.83
35704;BME280;21820;51.112;13.762;2022-12-18T14:33:22;101023.47;;;22.08;50.78
35704;BME280;21820;51.112;13.762;2022-12-18T14:36:01;101017.72;;;22.03;49.51
35704;BME280;21820;51.112;13.762;2022-12-18T14:41:01;101013.56;;;21.87;49.39
35704;BME280;21820;51.112;13.762;2022-12-18T14:43:29;101004.75;;;21.88;49.94
35704;BME280;21820;51.112;13.762;2022-12-18T14:45:56;101009.47;;;21.83;49.46
35704;BME280;21820;51.112;13.762;2022-12-18T14:48:23;101008.03;;;21.79;51.45
35704;BME280;21820;51.112;13.762;2022-12-18T14:51:01;101002.47;;;21.71;50.44